sensor_id;sensor_type;location;lat;lon;timestamp;P1;durP1;ratioP1;P2;durP2;ratioP2
1460;SDS011;724;49.910;12.530;2022-11-15T00:02:13;0.00;;;0.00;;
1460;SDS011;724;49.910;12.530;2022-11-15T00:04:40;0.00;;;0.00;;
1460;SDS011;724;49.910;12.530;2022-11-15T00:07:06;0.20;;;0.10;;
1460;SDS011;724;49.910;12.530;2022-11-15T00:09:34;0.60;;;0.50;;
1460;SDS011;724;49.910;12.530;2022-11-15T00:12:01;0.20;;;0.20;;
1460;SDS011;724;49.910;12.530;2022-11-15T00:14:28;0.40;;;0.40;;
1460;SDS011;724;49.910;12.530;2022-11-15T00:16:55;0.40;;;0.30;;
1460;SDS011;724;49.910;12.530;2022-11-15T00:19:21;0.30;;;0.20;;
1460;SDS011;724;49.910;12.530;2022-11-15T00:21:48;0.30;;;0.20;;
1460;SDS011;724;49.910;12.530;2022-11-15T00:24:15;0.20;;;0.20;;
1460;SDS011;724;49.910;12.530;2022-11-15T00:26:44;0.20;;;0.10;;
1460;SDS011;724;49.910;12.530;2022-11-15T00:29:11;0.22;;;0.13;;
1460;SDS011;724;49.910;12.530;2022-11-15T00:31:37;0.30;;;0.20;;
1460;SDS011;724;49.910;12.530;2022-11-15T00:34:04;0.20;;;0.10;;
1460;SDS011;724;49.910;12.530;2022-11-15T00:36:32;0.35;;;0.25;;
1460;SDS011;724;49.910;12.530;2022-11-15T00:38:59;0.30;;;0.20;;
1460;SDS011;724;49.910;12.530;2022-11-15T00:41:26;0.30;;;0.20;;
1460;SDS011;724;49.910;12.530;2022-11-15T00:43:54;0.40;;;0.30;;
1460;SDS011;724;49.910;12.530;2022-11-15T00:46:21;0.40;;;0.30;;
1460;SDS011;724;49.910;12.530;2022-11-15T00:48:48;0.40;;;0.30;;
1460;SDS011;724;49.910;12.530;2022-11-15T00:51:15;0.40;;;0.30;;
1460;SDS011;724;49.910;12.530;2022-11-15T00:53:41;0.40;;;0.30;;
1460;SDS011;724;49.910;12.530;2022-11-15T00:56:08;0.40;;;0.30;;
1460;SDS011;724;49.910;12.530;2022-11-15T00:58:35;0.50;;;0.40;;
1460;SDS011;724;49.910;12.530;2022-11-15T01:01:08;0.50;;;0.40;;
1460;SDS011;724;49.910;12.530;2022-11-15T01:03:36;0.40;;;0.30;;
1460;SDS011;724;49.910;12.530;2022-11-15T01:06:04;0.40;;;0.30;;
1460;SDS011;724;49.910;12.530;2022-11-15T01:08:32;0.30;;;0.20;;
1460;SDS011;724;49.910;12.530;2022-11-15T01:11:02;0.30;;;0.20;;
1460;SDS011;724;49.910;12.530;2022-11-15T01:13:31;0.50;;;0.40;;
1460;SDS011;724;49.910;12.530;2022-11-15T01:15:58;0.30;;;0.20;;
1460;SDS011;724;49.910;12.530;2022-11-15T01:18:28;0.30;;;0.20;;
1460;SDS011;724;49.910;12.530;2022-11-15T01:20:56;0.40;;;0.30;;
1460;SDS011;724;49.910;12.530;2022-11-15T01:23:22;0.40;;;0.30;;
1460;SDS011;724;49.910;12.530;2022-11-15T01:25:50;0.30;;;0.20;;
1460;SDS011;724;49.910;12.530;2022-11-15T01:28:18;0.45;;;0.35;;
1460;SDS011;724;49.910;12.530;2022-11-15T01:30:46;0.47;;;0.38;;
1460;SDS011;724;49.910;12.530;2022-11-15T01:33:12;0.32;;;0.22;;
1460;SDS011;724;49.910;12.530;2022-11-15T01:35:41;0.40;;;0.30;;
1460;SDS011;724;49.910;12.530;2022-11-15T01:38:07;0.30;;;0.20;;
1460;SDS011;724;49.910;12.530;2022-11-15T01:40:35;0.30;;;0.20;;
1460;SDS011;724;49.910;12.530;2022-11-15T01:45:47;0.40;;;0.30;;
1460;SDS011;724;49.910;12.530;2022-11-15T01:48:18;0.30;;;0.20;;
1460;SDS011;724;49.910;12.530;2022-11-15T01:50:47;0.40;;;0.30;;
1460;SDS011;724;49.910;12.530;2022-11-15T01:53:16;0.30;;;0.20;;
1460;SDS011;724;49.910;12.530;2022-11-15T01:55:46;0.40;;;0.30;;
1460;SDS011;724;49.910;12.530;2022-11-15T01:58:13;0.40;;;0.30;;
1460;SDS011;724;49.910;12.530;2022-11-15T02:00:40;0.40;;;0.30;;
1460;SDS011;724;49.910;12.530;2022-11-15T02:03:08;0.50;;;0.40;;
1460;SDS011;724;49.910;12.530;2022-11-15T02:05:35;0.60;;;0.50;;
1460;SDS011;724;49.910;12.530;2022-11-15T02:08:04;0.70;;;0.60;;
1460;SDS011;724;49.910;12.530;2022-11-15T02:10:32;0.45;;;0.35;;
1460;SDS011;724;49.910;12.530;2022-11-15T02:12:59;0.43;;;0.32;;
1460;SDS011;724;49.910;12.530;2022-11-15T02:15:29;0.50;;;0.40;;
1460;SDS011;724;49.910;12.530;2022-11-15T02:18:06;0.50;;;0.40;;
1460;SDS011;724;49.910;12.530;2022-11-15T02:20:47;0.57;;;0.47;;
1460;SDS011;724;49.910;12.530;2022-11-15T02:29:33;0.40;;;0.30;;
1460;SDS011;724;49.910;12.530;2022-11-15T02:32:17;0.60;;;0.50;;
1460;SDS011;724;49.910;12.530;2022-11-15T02:34:50;0.50;;;0.40;;
1460;SDS011;724;49.910;12.530;2022-11-15T02:37:21;0.40;;;0.30;;
1460;SDS011;724;49.910;12.530;2022-11-15T02:39:57;0.50;;;0.40;;
1460;SDS011;724;49.910;12.530;2022-11-15T02:42:30;0.40;;;0.30;;
1460;SDS011;724;49.910;12.530;2022-11-15T02:45:19;0.50;;;0.40;;
1460;SDS011;724;49.910;12.530;2022-11-15T02:47:52;0.40;;;0.30;;
1460;SDS011;724;49.910;12.530;2022-11-15T02:50:24;0.50;;;0.40;;
1460;SDS011;724;49.910;12.530;2022-11-15T02:52:54;0.40;;;0.30;;
1460;SDS011;724;49.910;12.530;2022-11-15T02:55:25;0.55;;;0.45;;
1460;SDS011;724;49.910;12.530;2022-11-15T02:57:57;0.40;;;0.30;;
1460;SDS011;724;49.910;12.530;2022-11-15T03:00:38;0.45;;;0.35;;
1460;SDS011;724;49.910;12.530;2022-11-15T03:03:19;0.57;;;0.47;;
1460;SDS011;724;49.910;12.530;2022-11-15T03:06:04;0.40;;;0.30;;
1460;SDS011;724;49.910;12.530;2022-11-15T03:08:44;0.50;;;0.40;;
1460;SDS011;724;49.910;12.530;2022-11-15T03:11:19;0.50;;;0.40;;
1460;SDS011;724;49.910;12.530;2022-11-15T03:13:52;0.47;;;0.38;;
1460;SDS011;724;49.910;12.530;2022-11-15T03:16:24;0.57;;;0.47;;
1460;SDS011;724;49.910;12.530;2022-11-15T03:18:56;0.50;;;0.40;;
1460;SDS011;724;49.910;12.530;2022-11-15T03:21:26;0.50;;;0.40;;
1460;SDS011;724;49.910;12.530;2022-11-15T03:23:56;0.50;;;0.40;;
1460;SDS011;724;49.910;12.530;2022-11-15T03:26:26;0.55;;;0.45;;
1460;SDS011;724;49.910;12.530;2022-11-15T03:28:55;0.68;;;0.57;;
1460;SDS011;724;49.910;12.530;2022-11-15T03:31:25;0.60;;;0.50;;
1460;SDS011;724;49.910;12.530;2022-11-15T03:34:18;0.70;;;0.60;;
1460;SDS011;724;49.910;12.530;2022-11-15T03:36:48;0.73;;;0.63;;
1460;SDS011;724;49.910;12.530;2022-11-15T03:39:17;0.70;;;0.60;;
1460;SDS011;724;49.910;12.530;2022-11-15T03:41:46;0.57;;;0.47;;
1460;SDS011;724;49.910;12.530;2022-11-15T03:44:16;0.60;;;0.50;;
1460;SDS011;724;49.910;12.530;2022-11-15T03:46:55;0.70;;;0.60;;
1460;SDS011;724;49.910;12.530;2022-11-15T03:49:28;0.60;;;0.50;;
1460;SDS011;724;49.910;12.530;2022-11-15T03:51:59;0.40;;;0.30;;
1460;SDS011;724;49.910;12.530;2022-11-15T03:54:27;0.50;;;0.40;;
1460;SDS011;724;49.910;12.530;2022-11-15T03:56:54;0.40;;;0.30;;
1460;SDS011;724;49.910;12.530;2022-11-15T03:59:22;0.50;;;0.40;;
1460;SDS011;724;49.910;12.530;2022-11-15T04:01:49;0.57;;;0.47;;
1460;SDS011;724;49.910;12.530;2022-11-15T04:04:15;0.60;;;0.50;;
1460;SDS011;724;49.910;12.530;2022-11-15T04:06:43;0.82;;;0.70;;
1460;SDS011;724;49.910;12.530;2022-11-15T04:09:10;1.20;;;0.95;;
1460;SDS011;724;49.910;12.530;2022-11-15T04:11:37;0.90;;;0.82;;
1460;SDS011;724;49.910;12.530;2022-11-15T04:14:04;0.57;;;0.40;;
1460;SDS011;724;49.910;12.530;2022-11-15T04:16:32;0.52;;;0.40;;
1460;SDS011;724;49.910;12.530;2022-11-15T04:18:58;1.52;;;0.65;;
1460;SDS011;724;49.910;12.530;2022-11-15T04:21:44;0.70;;;0.30;;
1460;SDS011;724;49.910;12.530;2022-11-15T04:24:28;0.52;;;0.35;;
1460;SDS011;724;49.910;12.530;2022-11-15T04:26:56;0.20;;;0.20;;
1460;SDS011;724;49.910;12.530;2022-11-15T04:29:23;0.22;;;0.20;;
1460;SDS011;724;49.910;12.530;2022-11-15T04:32:02;0.30;;;0.30;;
1460;SDS011;724;49.910;12.530;2022-11-15T04:34:30;0.22;;;0.20;;
1460;SDS011;724;49.910;12.530;2022-11-15T04:36:59;0.20;;;0.10;;
1460;SDS011;724;49.910;12.530;2022-11-15T04:39:37;0.13;;;0.10;;
1460;SDS011;724;49.910;12.530;2022-11-15T04:42:04;0.00;;;0.00;;
1460;SDS011;724;49.910;12.530;2022-11-15T04:44:31;0.20;;;0.10;;
1460;SDS011;724;49.910;12.530;2022-11-15T04:46:57;0.20;;;0.10;;
1460;SDS011;724;49.910;12.530;2022-11-15T04:49:24;0.20;;;0.10;;
1460;SDS011;724;49.910;12.530;2022-11-15T04:51:51;0.20;;;0.10;;
1460;SDS011;724;49.910;12.530;2022-11-15T04:54:19;0.20;;;0.10;;
1460;SDS011;724;49.910;12.530;2022-11-15T04:56:46;0.30;;;0.20;;
1460;SDS011;724;49.910;12.530;2022-11-15T04:59:13;0.30;;;0.20;;
1460;SDS011;724;49.910;12.530;2022-11-15T05:01:39;0.30;;;0.20;;
1460;SDS011;724;49.910;12.530;2022-11-15T05:04:06;0.40;;;0.30;;
1460;SDS011;724;49.910;12.530;2022-11-15T05:06:45;0.30;;;0.20;;
1460;SDS011;724;49.910;12.530;2022-11-15T05:09:13;0.30;;;0.20;;
1460;SDS011;724;49.910;12.530;2022-11-15T05:11:42;0.38;;;0.28;;
1460;SDS011;724;49.910;12.530;2022-11-15T05:14:09;0.30;;;0.20;;
1460;SDS011;724;49.910;12.530;2022-11-15T05:16:36;0.30;;;0.20;;
1460;SDS011;724;49.910;12.530;2022-11-15T05:19:04;0.30;;;0.20;;
1460;SDS011;724;49.910;12.530;2022-11-15T05:21:31;0.30;;;0.20;;
1460;SDS011;724;49.910;12.530;2022-11-15T05:24:00;0.22;;;0.13;;
1460;SDS011;724;49.910;12.530;2022-11-15T05:26:27;0.20;;;0.10;;
1460;SDS011;724;49.910;12.530;2022-11-15T05:28:57;0.20;;;0.10;;
1460;SDS011;724;49.910;12.530;2022-11-15T05:31:25;0.30;;;0.20;;
1460;SDS011;724;49.910;12.530;2022-11-15T05:33:53;0.20;;;0.10;;
1460;SDS011;724;49.910;12.530;2022-11-15T05:36:22;0.20;;;0.10;;
1460;SDS011;724;49.910;12.530;2022-11-15T05:38:55;0.28;;;0.17;;
1460;SDS011;724;49.910;12.530;2022-11-15T05:41:22;0.25;;;0.15;;
1460;SDS011;724;49.910;12.530;2022-11-15T05:43:52;0.20;;;0.10;;
1460;SDS011;724;49.910;12.530;2022-11-15T05:46:21;0.20;;;0.10;;
1460;SDS011;724;49.910;12.530;2022-11-15T05:48:48;0.20;;;0.10;;
1460;SDS011;724;49.910;12.530;2022-11-15T05:51:17;0.20;;;0.10;;
1460;SDS011;724;49.910;12.530;2022-11-15T05:53:45;0.20;;;0.10;;
1460;SDS011;724;49.910;12.530;2022-11-15T05:56:12;0.20;;;0.10;;
1460;SDS011;724;49.910;12.530;2022-11-15T05:58:41;0.00;;;0.00;;
1460;SDS011;724;49.910;12.530;2022-11-15T06:01:08;0.20;;;0.10;;
1460;SDS011;724;49.910;12.530;2022-11-15T06:03:36;0.20;;;0.10;;
1460;SDS011;724;49.910;12.530;2022-11-15T06:06:03;0.20;;;0.10;;
1460;SDS011;724;49.910;12.530;2022-11-15T06:08:32;0.05;;;0.03;;
1460;SDS011;724;49.910;12.530;2022-11-15T06:11:02;0.00;;;0.00;;
1460;SDS011;724;49.910;12.530;2022-11-15T06:13:30;0.20;;;0.10;;
1460;SDS011;724;49.910;12.530;2022-11-15T06:15:57;0.20;;;0.10;;
1460;SDS011;724;49.910;12.530;2022-11-15T06:18:24;0.20;;;0.10;;
1460;SDS011;724;49.910;12.530;2022-11-15T06:20:52;0.20;;;0.10;;
1460;SDS011;724;49.910;12.530;2022-11-15T06:23:19;0.20;;;0.10;;
1460;SDS011;724;49.910;12.530;2022-11-15T06:25:46;0.30;;;0.20;;
1460;SDS011;724;49.910;12.530;2022-11-15T06:28:12;0.30;;;0.20;;
1460;SDS011;724;49.910;12.530;2022-11-15T06:30:39;0.30;;;0.20;;
1460;SDS011;724;49.910;12.530;2022-11-15T06:33:06;0.30;;;0.20;;
1460;SDS011;724;49.910;12.530;2022-11-15T06:35:34;0.30;;;0.20;;
1460;SDS011;724;49.910;12.530;2022-11-15T06:38:03;0.40;;;0.30;;
1460;SDS011;724;49.910;12.530;2022-11-15T06:40:32;0.50;;;0.40;;
1460;SDS011;724;49.910;12.530;2022-11-15T06:43:00;0.47;;;0.38;;
1460;SDS011;724;49.910;12.530;2022-11-15T06:45:27;0.50;;;0.40;;
1460;SDS011;724;49.910;12.530;2022-11-15T06:47:54;0.50;;;0.40;;
1460;SDS011;724;49.910;12.530;2022-11-15T06:50:20;0.40;;;0.30;;
1460;SDS011;724;49.910;12.530;2022-11-15T06:52:47;0.40;;;0.30;;
1460;SDS011;724;49.910;12.530;2022-11-15T06:55:16;0.40;;;0.30;;
1460;SDS011;724;49.910;12.530;2022-11-15T06:57:46;0.50;;;0.40;;
1460;SDS011;724;49.910;12.530;2022-11-15T07:00:14;0.50;;;0.40;;
1460;SDS011;724;49.910;12.530;2022-11-15T07:02:42;0.50;;;0.40;;
1460;SDS011;724;49.910;12.530;2022-11-15T07:05:09;0.50;;;0.40;;
1460;SDS011;724;49.910;12.530;2022-11-15T07:07:37;0.40;;;0.30;;
1460;SDS011;724;49.910;12.530;2022-11-15T07:10:06;0.50;;;0.40;;
1460;SDS011;724;49.910;12.530;2022-11-15T07:12:35;0.50;;;0.40;;
1460;SDS011;724;49.910;12.530;2022-11-15T07:15:02;0.50;;;0.40;;
1460;SDS011;724;49.910;12.530;2022-11-15T07:17:29;0.40;;;0.30;;
1460;SDS011;724;49.910;12.530;2022-11-15T07:19:56;1.20;;;1.10;;
1460;SDS011;724;49.910;12.530;2022-11-15T07:22:22;3.17;;;2.97;;
1460;SDS011;724;49.910;12.530;2022-11-15T07:24:49;4.80;;;4.50;;
1460;SDS011;724;49.910;12.530;2022-11-15T07:27:16;7.63;;;7.22;;
1460;SDS011;724;49.910;12.530;2022-11-15T07:29:44;8.90;;;8.40;;
1460;SDS011;724;49.910;12.530;2022-11-15T07:32:11;10.05;;;9.55;;
1460;SDS011;724;49.910;12.530;2022-11-15T07:34:38;10.80;;;10.20;;
1460;SDS011;724;49.910;12.530;2022-11-15T07:37:04;11.70;;;11.10;;
1460;SDS011;724;49.910;12.530;2022-11-15T07:39:31;11.35;;;10.75;;
1460;SDS011;724;49.910;12.530;2022-11-15T07:41:58;12.20;;;11.60;;
1460;SDS011;724;49.910;12.530;2022-11-15T07:44:39;12.40;;;11.80;;
1460;SDS011;724;49.910;12.530;2022-11-15T07:47:07;11.90;;;11.30;;
1460;SDS011;724;49.910;12.530;2022-11-15T07:49:34;13.38;;;12.68;;
1460;SDS011;724;49.910;12.530;2022-11-15T07:52:00;13.40;;;12.70;;
1460;SDS011;724;49.910;12.530;2022-11-15T07:54:27;14.43;;;13.73;;
1460;SDS011;724;49.910;12.530;2022-11-15T07:56:54;14.82;;;14.02;;
1460;SDS011;724;49.910;12.530;2022-11-15T07:59:21;14.90;;;14.10;;
1460;SDS011;724;49.910;12.530;2022-11-15T08:01:47;15.10;;;14.30;;
1460;SDS011;724;49.910;12.530;2022-11-15T08:04:16;15.10;;;14.30;;
1460;SDS011;724;49.910;12.530;2022-11-15T08:06:42;15.30;;;14.50;;
1460;SDS011;724;49.910;12.530;2022-11-15T08:09:09;15.90;;;15.10;;
1460;SDS011;724;49.910;12.530;2022-11-15T08:11:36;16.00;;;15.20;;
1460;SDS011;724;49.910;12.530;2022-11-15T08:14:03;15.50;;;14.70;;
1460;SDS011;724;49.910;12.530;2022-11-15T08:16:29;16.25;;;15.45;;
1460;SDS011;724;49.910;12.530;2022-11-15T08:18:57;16.00;;;15.20;;
1460;SDS011;724;49.910;12.530;2022-11-15T08:21:25;15.70;;;14.90;;
1460;SDS011;724;49.910;12.530;2022-11-15T08:23:52;15.80;;;15.00;;
1460;SDS011;724;49.910;12.530;2022-11-15T08:26:18;16.00;;;15.20;;
1460;SDS011;724;49.910;12.530;2022-11-15T08:28:45;16.40;;;15.60;;
1460;SDS011;724;49.910;12.530;2022-11-15T08:31:13;16.60;;;15.80;;
1460;SDS011;724;49.910;12.530;2022-11-15T08:33:41;16.70;;;15.90;;
1460;SDS011;724;49.910;12.530;2022-11-15T08:36:11;16.47;;;15.67;;
1460;SDS011;724;49.910;12.530;2022-11-15T08:38:41;16.40;;;15.60;;
1460;SDS011;724;49.910;12.530;2022-11-15T08:41:09;16.40;;;15.60;;
1460;SDS011;724;49.910;12.530;2022-11-15T08:43:38;16.50;;;15.70;;
1460;SDS011;724;49.910;12.530;2022-11-15T08:46:05;16.53;;;15.73;;
1460;SDS011;724;49.910;12.530;2022-11-15T08:48:34;16.50;;;15.70;;
1460;SDS011;724;49.910;12.530;2022-11-15T08:51:01;16.50;;;15.70;;
1460;SDS011;724;49.910;12.530;2022-11-15T08:53:28;16.70;;;15.90;;
1460;SDS011;724;49.910;12.530;2022-11-15T08:55:56;17.00;;;16.10;;
1460;SDS011;724;49.910;12.530;2022-11-15T08:58:23;16.23;;;15.43;;
1460;SDS011;724;49.910;12.530;2022-11-15T09:00:50;16.30;;;15.50;;
1460;SDS011;724;49.910;12.530;2022-11-15T09:03:16;16.10;;;15.30;;
1460;SDS011;724;49.910;12.530;2022-11-15T09:05:43;16.20;;;15.40;;
1460;SDS011;724;49.910;12.530;2022-11-15T09:08:10;16.30;;;15.50;;
1460;SDS011;724;49.910;12.530;2022-11-15T09:10:37;16.30;;;15.50;;
1460;SDS011;724;49.910;12.530;2022-11-15T09:13:07;16.00;;;15.20;;
1460;SDS011;724;49.910;12.530;2022-11-15T09:15:33;16.10;;;15.30;;
1460;SDS011;724;49.910;12.530;2022-11-15T09:18:00;16.30;;;15.50;;
1460;SDS011;724;49.910;12.530;2022-11-15T09:20:27;16.17;;;15.37;;
1460;SDS011;724;49.910;12.530;2022-11-15T09:22:54;16.10;;;15.30;;
1460;SDS011;724;49.910;12.530;2022-11-15T09:25:20;16.00;;;15.20;;
1460;SDS011;724;49.910;12.530;2022-11-15T09:27:47;16.10;;;15.30;;
1460;SDS011;724;49.910;12.530;2022-11-15T09:30:15;16.30;;;15.50;;
1460;SDS011;724;49.910;12.530;2022-11-15T09:32:42;16.10;;;15.30;;
1460;SDS011;724;49.910;12.530;2022-11-15T09:35:10;16.00;;;15.20;;
1460;SDS011;724;49.910;12.530;2022-11-15T09:37:37;16.30;;;15.50;;
1460;SDS011;724;49.910;12.530;2022-11-15T09:40:04;16.20;;;15.40;;
1460;SDS011;724;49.910;12.530;2022-11-15T09:42:37;16.30;;;15.50;;
1460;SDS011;724;49.910;12.530;2022-11-15T09:45:18;16.23;;;15.43;;
1460;SDS011;724;49.910;12.530;2022-11-15T09:47:54;16.10;;;15.30;;
1460;SDS011;724;49.910;12.530;2022-11-15T09:50:36;16.43;;;15.63;;
1460;SDS011;724;49.910;12.530;2022-11-15T09:53:09;16.30;;;15.50;;
1460;SDS011;724;49.910;12.530;2022-11-15T09:55:40;16.50;;;15.70;;
1460;SDS011;724;49.910;12.530;2022-11-15T09:58:18;16.30;;;15.50;;
1460;SDS011;724;49.910;12.530;2022-11-15T10:00:52;16.00;;;15.20;;
1460;SDS011;724;49.910;12.530;2022-11-15T10:03:22;15.70;;;14.90;;
1460;SDS011;724;49.910;12.530;2022-11-15T10:05:54;15.90;;;15.10;;
1460;SDS011;724;49.910;12.530;2022-11-15T10:08:30;15.90;;;15.10;;
1460;SDS011;724;49.910;12.530;2022-11-15T10:11:04;16.20;;;15.40;;
1460;SDS011;724;49.910;12.530;2022-11-15T10:13:34;15.87;;;15.07;;
1460;SDS011;724;49.910;12.530;2022-11-15T10:16:12;15.90;;;15.10;;
1460;SDS011;724;49.910;12.530;2022-11-15T10:18:49;15.87;;;15.07;;
1460;SDS011;724;49.910;12.530;2022-11-15T10:21:24;15.77;;;14.97;;
1460;SDS011;724;49.910;12.530;2022-11-15T10:23:56;15.80;;;15.00;;
1460;SDS011;724;49.910;12.530;2022-11-15T10:26:23;15.70;;;14.90;;
1460;SDS011;724;49.910;12.530;2022-11-15T10:28:50;15.40;;;14.60;;
1460;SDS011;724;49.910;12.530;2022-11-15T10:31:22;15.47;;;14.67;;
1460;SDS011;724;49.910;12.530;2022-11-15T10:33:56;15.70;;;14.90;;
1460;SDS011;724;49.910;12.530;2022-11-15T10:36:36;15.97;;;15.17;;
1460;SDS011;724;49.910;12.530;2022-11-15T10:39:03;15.97;;;15.17;;
1460;SDS011;724;49.910;12.530;2022-11-15T10:41:37;15.70;;;14.90;;
1460;SDS011;724;49.910;12.530;2022-11-15T10:44:12;15.90;;;15.10;;
1460;SDS011;724;49.910;12.530;2022-11-15T10:47:06;16.00;;;15.20;;
1460;SDS011;724;49.910;12.530;2022-11-15T10:49:55;15.70;;;14.90;;
1460;SDS011;724;49.910;12.530;2022-11-15T10:52:26;15.80;;;15.00;;
1460;SDS011;724;49.910;12.530;2022-11-15T10:54:56;16.20;;;15.40;;
1460;SDS011;724;49.910;12.530;2022-11-15T10:57:28;16.17;;;15.37;;
1460;SDS011;724;49.910;12.530;2022-11-15T10:59:58;15.90;;;15.10;;
1460;SDS011;724;49.910;12.530;2022-11-15T11:02:29;15.73;;;14.93;;
1460;SDS011;724;49.910;12.530;2022-11-15T11:04:58;15.57;;;14.77;;
1460;SDS011;724;49.910;12.530;2022-11-15T11:07:26;15.87;;;15.07;;
1460;SDS011;724;49.910;12.530;2022-11-15T11:09:58;15.60;;;14.80;;
1460;SDS011;724;49.910;12.530;2022-11-15T11:12:27;15.40;;;14.60;;
1460;SDS011;724;49.910;12.530;2022-11-15T11:14:57;15.60;;;14.80;;
1460;SDS011;724;49.910;12.530;2022-11-15T11:17:29;15.30;;;14.50;;
1460;SDS011;724;49.910;12.530;2022-11-15T11:20:10;15.80;;;15.00;;
1460;SDS011;724;49.910;12.530;2022-11-15T11:22:50;15.73;;;14.93;;
1460;SDS011;724;49.910;12.530;2022-11-15T11:25:30;15.80;;;15.00;;
1460;SDS011;724;49.910;12.530;2022-11-15T11:28:05;15.90;;;15.10;;
1460;SDS011;724;49.910;12.530;2022-11-15T11:30:54;16.07;;;15.27;;
1460;SDS011;724;49.910;12.530;2022-11-15T11:33:29;15.70;;;14.90;;
1460;SDS011;724;49.910;12.530;2022-11-15T11:36:01;15.87;;;15.07;;
1460;SDS011;724;49.910;12.530;2022-11-15T11:41:38;16.10;;;15.30;;
1460;SDS011;724;49.910;12.530;2022-11-15T11:44:15;16.00;;;15.20;;
1460;SDS011;724;49.910;12.530;2022-11-15T11:46:51;15.97;;;15.17;;
1460;SDS011;724;49.910;12.530;2022-11-15T11:49:25;15.97;;;15.17;;
1460;SDS011;724;49.910;12.530;2022-11-15T11:52:00;15.80;;;15.00;;
1460;SDS011;724;49.910;12.530;2022-11-15T11:54:31;15.80;;;15.00;;
1460;SDS011;724;49.910;12.530;2022-11-15T11:57:04;15.97;;;15.17;;
1460;SDS011;724;49.910;12.530;2022-11-15T11:59:39;15.80;;;15.00;;
1460;SDS011;724;49.910;12.530;2022-11-15T12:02:12;15.80;;;15.00;;
1460;SDS011;724;49.910;12.530;2022-11-15T12:04:47;15.80;;;15.00;;
1460;SDS011;724;49.910;12.530;2022-11-15T12:07:17;15.70;;;14.90;;
1460;SDS011;724;49.910;12.530;2022-11-15T12:09:48;15.70;;;14.90;;
1460;SDS011;724;49.910;12.530;2022-11-15T12:12:21;15.30;;;14.50;;
1460;SDS011;724;49.910;12.530;2022-11-15T12:14:54;15.10;;;14.30;;
1460;SDS011;724;49.910;12.530;2022-11-15T12:17:24;15.00;;;14.20;;
1460;SDS011;724;49.910;12.530;2022-11-15T12:19:53;14.80;;;14.00;;
1460;SDS011;724;49.910;12.530;2022-11-15T12:22:24;14.95;;;14.15;;
1460;SDS011;724;49.910;12.530;2022-11-15T12:25:02;14.60;;;13.90;;
1460;SDS011;724;49.910;12.530;2022-11-15T12:27:35;14.30;;;13.60;;
1460;SDS011;724;49.910;12.530;2022-11-15T12:30:07;14.50;;;13.80;;
1460;SDS011;724;49.910;12.530;2022-11-15T12:32:38;14.10;;;13.40;;
1460;SDS011;724;49.910;12.530;2022-11-15T12:35:21;14.05;;;13.35;;
1460;SDS011;724;49.910;12.530;2022-11-15T12:37:51;13.80;;;13.10;;
1460;SDS011;724;49.910;12.530;2022-11-15T12:40:31;14.00;;;13.30;;
1460;SDS011;724;49.910;12.530;2022-11-15T12:46:04;14.10;;;13.40;;
1460;SDS011;724;49.910;12.530;2022-11-15T12:57:55;13.70;;;13.00;;
1460;SDS011;724;49.910;12.530;2022-11-15T13:00:59;13.40;;;12.70;;
1460;SDS011;724;49.910;12.530;2022-11-15T13:03:27;13.00;;;12.30;;
1460;SDS011;724;49.910;12.530;2022-11-15T13:06:03;12.90;;;12.20;;
1460;SDS011;724;49.910;12.530;2022-11-15T13:08:46;12.90;;;12.20;;
1460;SDS011;724;49.910;12.530;2022-11-15T13:14:40;12.90;;;12.20;;
1460;SDS011;724;49.910;12.530;2022-11-15T13:20:18;12.15;;;11.55;;
1460;SDS011;724;49.910;12.530;2022-11-15T13:22:49;11.63;;;11.02;;
1460;SDS011;724;49.910;12.530;2022-11-15T13:25:32;11.60;;;11.00;;
1460;SDS011;724;49.910;12.530;2022-11-15T13:28:26;11.40;;;10.80;;
1460;SDS011;724;49.910;12.530;2022-11-15T13:31:00;11.10;;;10.50;;
1460;SDS011;724;49.910;12.530;2022-11-15T13:33:31;10.70;;;10.10;;
1460;SDS011;724;49.910;12.530;2022-11-15T13:36:01;10.32;;;9.82;;
1460;SDS011;724;49.910;12.530;2022-11-15T13:38:30;10.00;;;9.50;;
1460;SDS011;724;49.910;12.530;2022-11-15T13:40:59;9.70;;;9.20;;
1460;SDS011;724;49.910;12.530;2022-11-15T13:43:37;9.00;;;8.50;;
1460;SDS011;724;49.910;12.530;2022-11-15T13:46:13;8.10;;;7.70;;
1460;SDS011;724;49.910;12.530;2022-11-15T13:48:43;8.30;;;7.90;;
1460;SDS011;724;49.910;12.530;2022-11-15T13:51:14;8.25;;;7.85;;
1460;SDS011;724;49.910;12.530;2022-11-15T13:53:54;9.20;;;8.70;;
1460;SDS011;724;49.910;12.530;2022-11-15T13:56:25;9.65;;;9.15;;
1460;SDS011;724;49.910;12.530;2022-11-15T13:58:54;9.50;;;9.00;;
1460;SDS011;724;49.910;12.530;2022-11-15T14:01:23;9.20;;;8.70;;
1460;SDS011;724;49.910;12.530;2022-11-15T14:03:54;9.60;;;9.10;;
1460;SDS011;724;49.910;12.530;2022-11-15T14:06:23;9.50;;;9.00;;
1460;SDS011;724;49.910;12.530;2022-11-15T14:09:00;9.30;;;8.80;;
1460;SDS011;724;49.910;12.530;2022-11-15T14:11:51;9.00;;;8.50;;
1460;SDS011;724;49.910;12.530;2022-11-15T14:14:20;8.60;;;8.10;;
1460;SDS011;724;49.910;12.530;2022-11-15T14:16:51;8.50;;;8.00;;
1460;SDS011;724;49.910;12.530;2022-11-15T14:19:36;7.90;;;7.50;;
1460;SDS011;724;49.910;12.530;2022-11-15T14:22:08;8.00;;;7.60;;
1460;SDS011;724;49.910;12.530;2022-11-15T14:24:46;7.80;;;7.40;;
1460;SDS011;724;49.910;12.530;2022-11-15T14:27:29;7.50;;;7.10;;
1460;SDS011;724;49.910;12.530;2022-11-15T14:29:55;7.40;;;7.00;;
1460;SDS011;724;49.910;12.530;2022-11-15T14:32:24;7.55;;;7.15;;
1460;SDS011;724;49.910;12.530;2022-11-15T14:34:54;7.80;;;7.40;;
1460;SDS011;724;49.910;12.530;2022-11-15T14:37:22;7.60;;;7.20;;
1460;SDS011;724;49.910;12.530;2022-11-15T14:39:51;7.63;;;7.22;;
1460;SDS011;724;49.910;12.530;2022-11-15T14:42:18;7.70;;;7.30;;
1460;SDS011;724;49.910;12.530;2022-11-15T14:44:47;7.80;;;7.40;;
1460;SDS011;724;49.910;12.530;2022-11-15T14:47:14;7.00;;;6.60;;
1460;SDS011;724;49.910;12.530;2022-11-15T14:49:42;7.00;;;6.60;;
1460;SDS011;724;49.910;12.530;2022-11-15T14:52:16;7.10;;;6.70;;
1460;SDS011;724;49.910;12.530;2022-11-15T14:54:50;7.00;;;6.60;;
1460;SDS011;724;49.910;12.530;2022-11-15T14:57:17;7.40;;;7.00;;
1460;SDS011;724;49.910;12.530;2022-11-15T14:59:44;7.50;;;7.10;;
1460;SDS011;724;49.910;12.530;2022-11-15T15:02:13;7.82;;;7.43;;
1460;SDS011;724;49.910;12.530;2022-11-15T15:04:44;7.50;;;7.10;;
1460;SDS011;724;49.910;12.530;2022-11-15T15:07:10;7.30;;;6.90;;
1460;SDS011;724;49.910;12.530;2022-11-15T15:09:37;7.55;;;7.15;;
1460;SDS011;724;49.910;12.530;2022-11-15T15:12:04;7.53;;;7.13;;
1460;SDS011;724;49.910;12.530;2022-11-15T15:14:32;7.13;;;6.72;;
1460;SDS011;724;49.910;12.530;2022-11-15T15:16:59;6.70;;;6.30;;
1460;SDS011;724;49.910;12.530;2022-11-15T15:19:25;5.70;;;5.40;;
1460;SDS011;724;49.910;12.530;2022-11-15T15:21:55;4.25;;;3.97;;
1460;SDS011;724;49.910;12.530;2022-11-15T15:24:22;3.80;;;3.60;;
1460;SDS011;724;49.910;12.530;2022-11-15T15:26:48;3.85;;;3.65;;
1460;SDS011;724;49.910;12.530;2022-11-15T15:29:16;3.55;;;3.35;;
1460;SDS011;724;49.910;12.530;2022-11-15T15:31:43;3.65;;;3.45;;
1460;SDS011;724;49.910;12.530;2022-11-15T15:34:10;2.00;;;1.90;;
1460;SDS011;724;49.910;12.530;2022-11-15T15:36:36;1.77;;;1.67;;
1460;SDS011;724;49.910;12.530;2022-11-15T15:39:05;1.10;;;1.00;;
1460;SDS011;724;49.910;12.530;2022-11-15T15:41:34;0.70;;;0.60;;
1460;SDS011;724;49.910;12.530;2022-11-15T15:44:01;0.60;;;0.50;;
1460;SDS011;724;49.910;12.530;2022-11-15T15:46:28;0.65;;;0.55;;
1460;SDS011;724;49.910;12.530;2022-11-15T15:48:54;0.32;;;0.22;;
1460;SDS011;724;49.910;12.530;2022-11-15T15:51:21;0.30;;;0.20;;
1460;SDS011;724;49.910;12.530;2022-11-15T15:53:48;0.25;;;0.20;;
1460;SDS011;724;49.910;12.530;2022-11-15T15:56:17;0.40;;;0.30;;